sensor_id;sensor_type;location;lat;lon;timestamp;temperature;humidity
54796;DHT22;40693;43.884;20.340;2023-01-04T00:01:39;204.90;2252.80
54796;DHT22;40693;43.884;20.340;2023-01-04T00:04:04;204.80;2252.80
54796;DHT22;40693;43.884;20.340;2023-01-04T00:06:31;204.80;2252.80
54796;DHT22;40693;43.884;20.340;2023-01-04T00:08:56;204.80;2252.80
54796;DHT22;40693;43.884;20.340;2023-01-04T00:11:22;180.10;2252.80
54796;DHT22;40693;43.884;20.340;2023-01-04T00:13:49;204.80;2252.80
54796;DHT22;40693;43.884;20.340;2023-01-04T00:16:17;204.80;2252.80
54796;DHT22;40693;43.884;20.340;2023-01-04T00:18:43;204.80;2252.80
54796;DHT22;40693;43.884;20.340;2023-01-04T00:21:17;204.80;2252.80
54796;DHT22;40693;43.884;20.340;2023-01-04T00:23:44;204.80;2252.80
54796;DHT22;40693;43.884;20.340;2023-01-04T00:26:10;204.80;2252.80
54796;DHT22;40693;43.884;20.340;2023-01-04T00:28:36;204.80;2252.80
54796;DHT22;40693;43.884;20.340;2023-01-04T00:31:06;204.80;2252.80
54796;DHT22;40693;43.884;20.340;2023-01-04T00:33:32;204.80;2252.80
54796;DHT22;40693;43.884;20.340;2023-01-04T00:36:02;204.80;2252.80
54796;DHT22;40693;43.884;20.340;2023-01-04T00:38:28;204.80;2252.80
54796;DHT22;40693;43.884;20.340;2023-01-04T00:40:54;204.80;2252.80
54796;DHT22;40693;43.884;20.340;2023-01-04T00:43:19;204.80;2252.80
54796;DHT22;40693;43.884;20.340;2023-01-04T00:45:45;204.80;2252.80
54796;DHT22;40693;43.884;20.340;2023-01-04T00:48:10;204.90;2252.80
54796;DHT22;40693;43.884;20.340;2023-01-04T00:50:36;204.80;2252.80
54796;DHT22;40693;43.884;20.340;2023-01-04T00:53:01;180.10;2252.80
54796;DHT22;40693;43.884;20.340;2023-01-04T00:55:28;180.10;2252.80
54796;DHT22;40693;43.884;20.340;2023-01-04T00:57:54;180.00;2252.80
54796;DHT22;40693;43.884;20.340;2023-01-04T01:00:19;180.00;2252.80
54796;DHT22;40693;43.884;20.340;2023-01-04T01:02:45;180.00;2252.80
54796;DHT22;40693;43.884;20.340;2023-01-04T01:05:11;179.90;2252.80
54796;DHT22;40693;43.884;20.340;2023-01-04T01:07:36;179.90;2252.80
54796;DHT22;40693;43.884;20.340;2023-01-04T01:10:02;179.90;2252.80
54796;DHT22;40693;43.884;20.340;2023-01-04T01:12:28;180.00;2252.80
54796;DHT22;40693;43.884;20.340;2023-01-04T01:14:53;180.00;2252.80
54796;DHT22;40693;43.884;20.340;2023-01-04T01:17:19;180.00;2252.80
54796;DHT22;40693;43.884;20.340;2023-01-04T01:19:45;180.00;2252.80
54796;DHT22;40693;43.884;20.340;2023-01-04T01:22:10;180.00;2252.80
54796;DHT22;40693;43.884;20.340;2023-01-04T01:24:36;180.00;2252.80
54796;DHT22;40693;43.884;20.340;2023-01-04T01:27:01;180.00;2252.80
54796;DHT22;40693;43.884;20.340;2023-01-04T01:29:27;179.90;2252.80
54796;DHT22;40693;43.884;20.340;2023-01-04T01:31:53;180.00;2252.80
54796;DHT22;40693;43.884;20.340;2023-01-04T01:34:18;180.00;2252.80
54796;DHT22;40693;43.884;20.340;2023-01-04T01:36:44;180.00;2252.80
54796;DHT22;40693;43.884;20.340;2023-01-04T01:39:10;179.90;2252.80
54796;DHT22;40693;43.884;20.340;2023-01-04T01:41:36;179.90;2252.80
54796;DHT22;40693;43.884;20.340;2023-01-04T01:49:01;179.80;2252.80
54796;DHT22;40693;43.884;20.340;2023-01-04T01:51:26;179.70;2252.80
54796;DHT22;40693;43.884;20.340;2023-01-04T01:53:53;179.70;2252.80
54796;DHT22;40693;43.884;20.340;2023-01-04T01:56:22;179.70;2252.80
54796;DHT22;40693;43.884;20.340;2023-01-04T01:58:49;179.70;2252.80
54796;DHT22;40693;43.884;20.340;2023-01-04T02:01:17;179.70;2252.80
54796;DHT22;40693;43.884;20.340;2023-01-04T02:03:42;179.70;2252.80
54796;DHT22;40693;43.884;20.340;2023-01-04T02:06:12;179.70;2252.80
54796;DHT22;40693;43.884;20.340;2023-01-04T02:08:41;179.70;2252.80
54796;DHT22;40693;43.884;20.340;2023-01-04T02:11:07;179.70;2252.80
54796;DHT22;40693;43.884;20.340;2023-01-04T02:13:33;179.60;2252.80
54796;DHT22;40693;43.884;20.340;2023-01-04T02:19:10;179.60;2252.80
54796;DHT22;40693;43.884;20.340;2023-01-04T02:32:37;179.60;2252.80
54796;DHT22;40693;43.884;20.340;2023-01-04T02:35:15;179.50;2252.80
54796;DHT22;40693;43.884;20.340;2023-01-04T02:40:25;179.30;2252.80
54796;DHT22;40693;43.884;20.340;2023-01-04T02:46:11;179.40;2252.80
54796;DHT22;40693;43.884;20.340;2023-01-04T02:48:39;179.50;2252.80
54796;DHT22;40693;43.884;20.340;2023-01-04T02:53:49;179.40;2252.80
54796;DHT22;40693;43.884;20.340;2023-01-04T02:56:24;179.40;2252.80
54796;DHT22;40693;43.884;20.340;2023-01-04T03:05:14;179.40;2252.80
54796;DHT22;40693;43.884;20.340;2023-01-04T03:08:08;179.30;2252.80
54796;DHT22;40693;43.884;20.340;2023-01-04T03:13:26;179.40;2252.80
54796;DHT22;40693;43.884;20.340;2023-01-04T03:15:51;179.40;2252.80
54796;DHT22;40693;43.884;20.340;2023-01-04T03:18:19;179.40;2252.80
54796;DHT22;40693;43.884;20.340;2023-01-04T03:20:46;179.40;2252.80
54796;DHT22;40693;43.884;20.340;2023-01-04T03:23:13;179.30;2252.80
54796;DHT22;40693;43.884;20.340;2023-01-04T03:25:58;179.20;2252.80
54796;DHT22;40693;43.884;20.340;2023-01-04T03:28:45;154.50;2252.80
54796;DHT22;40693;43.884;20.340;2023-01-04T03:31:34;154.40;2252.80
54796;DHT22;40693;43.884;20.340;2023-01-04T03:34:20;154.20;2252.80
54796;DHT22;40693;43.884;20.340;2023-01-04T03:39:57;154.20;2252.80
54796;DHT22;40693;43.884;20.340;2023-01-04T03:42:49;154.20;2252.80
54796;DHT22;40693;43.884;20.340;2023-01-04T03:45:39;154.20;2252.80
54796;DHT22;40693;43.884;20.340;2023-01-04T03:51:16;154.30;2252.80
54796;DHT22;40693;43.884;20.340;2023-01-04T03:53:57;154.30;2252.80
54796;DHT22;40693;43.884;20.340;2023-01-04T03:56:25;154.40;2252.80
54796;DHT22;40693;43.884;20.340;2023-01-04T03:58:51;154.30;2252.80
54796;DHT22;40693;43.884;20.340;2023-01-04T04:01:19;154.20;2252.80
54796;DHT22;40693;43.884;20.340;2023-01-04T04:03:45;154.20;2252.80
54796;DHT22;40693;43.884;20.340;2023-01-04T04:06:29;154.10;2252.80
54796;DHT22;40693;43.884;20.340;2023-01-04T04:09:13;154.10;2252.80
54796;DHT22;40693;43.884;20.340;2023-01-04T04:11:39;154.10;2252.80
54796;DHT22;40693;43.884;20.340;2023-01-04T04:14:04;154.10;2252.80
54796;DHT22;40693;43.884;20.340;2023-01-04T04:16:30;154.00;2252.80
54796;DHT22;40693;43.884;20.340;2023-01-04T04:18:55;154.00;2252.80
54796;DHT22;40693;43.884;20.340;2023-01-04T04:21:21;154.00;2252.80
54796;DHT22;40693;43.884;20.340;2023-01-04T04:23:47;154.00;2252.80
54796;DHT22;40693;43.884;20.340;2023-01-04T04:26:12;154.00;2252.80
54796;DHT22;40693;43.884;20.340;2023-01-04T04:28:38;154.00;2252.80
54796;DHT22;40693;43.884;20.340;2023-01-04T04:31:04;154.10;2252.80
54796;DHT22;40693;43.884;20.340;2023-01-04T04:33:30;154.10;2252.80
54796;DHT22;40693;43.884;20.340;2023-01-04T04:35:55;154.00;2252.80
54796;DHT22;40693;43.884;20.340;2023-01-04T04:38:21;154.10;2252.80
54796;DHT22;40693;43.884;20.340;2023-01-04T04:40:47;154.10;2252.80
54796;DHT22;40693;43.884;20.340;2023-01-04T04:43:32;154.10;2252.80
54796;DHT22;40693;43.884;20.340;2023-01-04T04:45:57;154.10;2252.80
54796;DHT22;40693;43.884;20.340;2023-01-04T04:48:23;154.10;2252.80
54796;DHT22;40693;43.884;20.340;2023-01-04T04:50:49;154.10;2252.80
54796;DHT22;40693;43.884;20.340;2023-01-04T04:53:14;154.10;2252.80
54796;DHT22;40693;43.884;20.340;2023-01-04T04:55:40;154.10;2252.80
54796;DHT22;40693;43.884;20.340;2023-01-04T04:58:05;154.50;2252.80
54796;DHT22;40693;43.884;20.340;2023-01-04T05:00:31;154.10;2252.80
54796;DHT22;40693;43.884;20.340;2023-01-04T05:02:57;154.10;2252.80
54796;DHT22;40693;43.884;20.340;2023-01-04T05:05:23;154.10;2252.80
54796;DHT22;40693;43.884;20.340;2023-01-04T05:07:48;154.10;2252.80
54796;DHT22;40693;43.884;20.340;2023-01-04T05:10:14;154.10;2252.80
54796;DHT22;40693;43.884;20.340;2023-01-04T05:12:39;154.10;2252.80
54796;DHT22;40693;43.884;20.340;2023-01-04T05:15:23;154.20;2252.80
54796;DHT22;40693;43.884;20.340;2023-01-04T05:17:49;154.10;2252.80
54796;DHT22;40693;43.884;20.340;2023-01-04T05:20:16;154.10;2252.80
54796;DHT22;40693;43.884;20.340;2023-01-04T05:22:42;154.00;2252.80
54796;DHT22;40693;43.884;20.340;2023-01-04T05:25:08;154.00;2252.80
54796;DHT22;40693;43.884;20.340;2023-01-04T05:27:34;154.00;2252.80
54796;DHT22;40693;43.884;20.340;2023-01-04T05:30:00;154.00;2252.80
54796;DHT22;40693;43.884;20.340;2023-01-04T05:32:45;154.10;2252.80
54796;DHT22;40693;43.884;20.340;2023-01-04T05:35:10;153.90;2252.80
54796;DHT22;40693;43.884;20.340;2023-01-04T05:37:36;153.90;2252.80
54796;DHT22;40693;43.884;20.340;2023-01-04T05:40:01;153.80;2252.80
54796;DHT22;40693;43.884;20.340;2023-01-04T05:42:27;153.70;2252.80
54796;DHT22;40693;43.884;20.340;2023-01-04T05:44:53;153.70;2252.80
54796;DHT22;40693;43.884;20.340;2023-01-04T05:47:19;153.60;2252.80
54796;DHT22;40693;43.884;20.340;2023-01-04T05:49:45;153.70;2252.80
54796;DHT22;40693;43.884;20.340;2023-01-04T05:52:10;153.70;2252.80
54796;DHT22;40693;43.884;20.340;2023-01-04T05:54:36;153.80;2252.80
54796;DHT22;40693;43.884;20.340;2023-01-04T05:57:01;153.70;2252.80
54796;DHT22;40693;43.884;20.340;2023-01-04T05:59:27;153.80;2252.80
54796;DHT22;40693;43.884;20.340;2023-01-04T06:01:53;153.80;2252.80
54796;DHT22;40693;43.884;20.340;2023-01-04T06:04:18;153.90;2252.80
54796;DHT22;40693;43.884;20.340;2023-01-04T06:06:44;153.90;2252.80
54796;DHT22;40693;43.884;20.340;2023-01-04T06:09:10;153.90;2252.80
54796;DHT22;40693;43.884;20.340;2023-01-04T06:11:36;153.90;2252.80
54796;DHT22;40693;43.884;20.340;2023-01-04T06:14:01;153.90;2252.80
54796;DHT22;40693;43.884;20.340;2023-01-04T06:16:27;153.90;2252.80
54796;DHT22;40693;43.884;20.340;2023-01-04T06:18:52;153.90;2252.80
54796;DHT22;40693;43.884;20.340;2023-01-04T06:21:18;153.90;2252.80
54796;DHT22;40693;43.884;20.340;2023-01-04T06:23:44;153.90;2252.80
54796;DHT22;40693;43.884;20.340;2023-01-04T06:26:10;153.90;2252.80
54796;DHT22;40693;43.884;20.340;2023-01-04T06:28:35;153.90;2252.80
54796;DHT22;40693;43.884;20.340;2023-01-04T06:31:04;154.00;2252.80
54796;DHT22;40693;43.884;20.340;2023-01-04T06:33:30;154.00;2252.80
54796;DHT22;40693;43.884;20.340;2023-01-04T06:35:56;154.10;2252.80
54796;DHT22;40693;43.884;20.340;2023-01-04T06:38:22;154.10;2252.80
54796;DHT22;40693;43.884;20.340;2023-01-04T06:40:48;154.20;2252.80
54796;DHT22;40693;43.884;20.340;2023-01-04T06:43:13;154.20;2252.80
54796;DHT22;40693;43.884;20.340;2023-01-04T06:45:39;154.20;2252.80
54796;DHT22;40693;43.884;20.340;2023-01-04T06:48:04;154.30;2252.80
54796;DHT22;40693;43.884;20.340;2023-01-04T06:50:30;154.30;2252.80
54796;DHT22;40693;43.884;20.340;2023-01-04T06:52:56;154.40;2252.80
54796;DHT22;40693;43.884;20.340;2023-01-04T06:55:21;154.50;2252.80
54796;DHT22;40693;43.884;20.340;2023-01-04T06:57:47;179.20;2252.80
54796;DHT22;40693;43.884;20.340;2023-01-04T07:00:13;179.20;2252.80
54796;DHT22;40693;43.884;20.340;2023-01-04T07:02:39;179.30;2252.80
54796;DHT22;40693;43.884;20.340;2023-01-04T07:05:04;179.30;2252.80
54796;DHT22;40693;43.884;20.340;2023-01-04T07:07:31;179.40;2252.80
54796;DHT22;40693;43.884;20.340;2023-01-04T07:09:56;179.40;2252.80
54796;DHT22;40693;43.884;20.340;2023-01-04T07:12:22;179.50;2252.80
54796;DHT22;40693;43.884;20.340;2023-01-04T07:14:48;179.50;2252.80
54796;DHT22;40693;43.884;20.340;2023-01-04T07:17:13;179.50;2252.80
54796;DHT22;40693;43.884;20.340;2023-01-04T07:19:39;179.60;2252.80
54796;DHT22;40693;43.884;20.340;2023-01-04T07:22:05;179.60;2252.80
54796;DHT22;40693;43.884;20.340;2023-01-04T07:24:30;179.60;2252.80
54796;DHT22;40693;43.884;20.340;2023-01-04T07:26:58;179.70;2252.80
54796;DHT22;40693;43.884;20.340;2023-01-04T07:29:23;179.70;2252.80
54796;DHT22;40693;43.884;20.340;2023-01-04T07:31:49;179.80;2252.80
54796;DHT22;40693;43.884;20.340;2023-01-04T07:34:16;179.80;2252.80
54796;DHT22;40693;43.884;20.340;2023-01-04T07:36:42;179.70;2252.80
54796;DHT22;40693;43.884;20.340;2023-01-04T07:39:08;179.70;2252.80
54796;DHT22;40693;43.884;20.340;2023-01-04T07:41:36;179.70;2252.80
54796;DHT22;40693;43.884;20.340;2023-01-04T07:44:02;179.60;2252.80
54796;DHT22;40693;43.884;20.340;2023-01-04T07:46:27;179.60;2252.80
54796;DHT22;40693;43.884;20.340;2023-01-04T07:48:53;179.60;2252.80
54796;DHT22;40693;43.884;20.340;2023-01-04T07:51:19;179.60;2252.80
54796;DHT22;40693;43.884;20.340;2023-01-04T07:53:44;179.60;2252.80
54796;DHT22;40693;43.884;20.340;2023-01-04T07:56:10;179.50;2252.80
54796;DHT22;40693;43.884;20.340;2023-01-04T07:58:36;179.50;2252.80
54796;DHT22;40693;43.884;20.340;2023-01-04T08:01:05;179.60;2252.80
54796;DHT22;40693;43.884;20.340;2023-01-04T08:03:30;179.60;2252.80
54796;DHT22;40693;43.884;20.340;2023-01-04T08:05:56;179.70;2252.80
54796;DHT22;40693;43.884;20.340;2023-01-04T08:08:21;179.70;2252.80
54796;DHT22;40693;43.884;20.340;2023-01-04T08:10:47;179.70;2252.80
54796;DHT22;40693;43.884;20.340;2023-01-04T08:13:12;179.80;2252.80
54796;DHT22;40693;43.884;20.340;2023-01-04T08:15:38;179.80;2252.80
54796;DHT22;40693;43.884;20.340;2023-01-04T08:18:04;179.90;2252.80
54796;DHT22;40693;43.884;20.340;2023-01-04T08:20:29;179.80;2252.80
54796;DHT22;40693;43.884;20.340;2023-01-04T08:22:55;179.90;2252.80
54796;DHT22;40693;43.884;20.340;2023-01-04T08:25:21;179.90;2252.80
54796;DHT22;40693;43.884;20.340;2023-01-04T08:27:46;180.00;2252.80
54796;DHT22;40693;43.884;20.340;2023-01-04T08:30:12;180.00;2252.80
54796;DHT22;40693;43.884;20.340;2023-01-04T08:32:38;180.10;2252.80
54796;DHT22;40693;43.884;20.340;2023-01-04T08:35:04;180.10;2252.80
54796;DHT22;40693;43.884;20.340;2023-01-04T08:37:30;204.80;2252.80
54796;DHT22;40693;43.884;20.340;2023-01-04T08:39:56;204.80;2252.80
54796;DHT22;40693;43.884;20.340;2023-01-04T08:42:22;204.80;2252.80
54796;DHT22;40693;43.884;20.340;2023-01-04T08:44:48;204.90;2252.80
54796;DHT22;40693;43.884;20.340;2023-01-04T08:47:13;204.90;2252.80
54796;DHT22;40693;43.884;20.340;2023-01-04T08:49:39;205.00;2252.80
54796;DHT22;40693;43.884;20.340;2023-01-04T08:52:05;205.00;2252.80
54796;DHT22;40693;43.884;20.340;2023-01-04T08:54:31;205.00;2252.80
54796;DHT22;40693;43.884;20.340;2023-01-04T08:56:57;205.10;2252.80
54796;DHT22;40693;43.884;20.340;2023-01-04T08:59:22;205.10;2252.80
54796;DHT22;40693;43.884;20.340;2023-01-04T09:01:48;205.20;2252.80
54796;DHT22;40693;43.884;20.340;2023-01-04T09:04:14;205.20;2252.80
54796;DHT22;40693;43.884;20.340;2023-01-04T09:06:39;205.20;2252.80
54796;DHT22;40693;43.884;20.340;2023-01-04T09:09:05;205.30;2252.80
54796;DHT22;40693;43.884;20.340;2023-01-04T09:11:31;205.30;2252.80
54796;DHT22;40693;43.884;20.340;2023-01-04T09:13:57;205.40;2252.80
54796;DHT22;40693;43.884;20.340;2023-01-04T09:16:23;205.50;2252.80
54796;DHT22;40693;43.884;20.340;2023-01-04T09:18:49;205.60;2252.80
54796;DHT22;40693;43.884;20.340;2023-01-04T09:21:19;205.50;2252.80
54796;DHT22;40693;43.884;20.340;2023-01-04T09:23:44;205.50;2252.80
54796;DHT22;40693;43.884;20.340;2023-01-04T09:26:11;205.60;2252.80
54796;DHT22;40693;43.884;20.340;2023-01-04T09:28:37;205.60;2252.80
54796;DHT22;40693;43.884;20.340;2023-01-04T09:31:06;205.70;2252.80
54796;DHT22;40693;43.884;20.340;2023-01-04T09:33:32;205.70;2252.80
54796;DHT22;40693;43.884;20.340;2023-01-04T09:36:02;230.40;2252.80
54796;DHT22;40693;43.884;20.340;2023-01-04T09:38:28;205.70;2252.80
54796;DHT22;40693;43.884;20.340;2023-01-04T09:43:31;230.40;2252.80
54796;DHT22;40693;43.884;20.340;2023-01-04T09:46:01;230.40;2252.80
54796;DHT22;40693;43.884;20.340;2023-01-04T09:48:28;230.50;2252.80
54796;DHT22;40693;43.884;20.340;2023-01-04T09:50:59;230.50;2252.80
54796;DHT22;40693;43.884;20.340;2023-01-04T09:53:34;230.50;2252.80
54796;DHT22;40693;43.884;20.340;2023-01-04T09:56:06;230.50;2252.80
54796;DHT22;40693;43.884;20.340;2023-01-04T09:58:36;230.50;2252.80
54796;DHT22;40693;43.884;20.340;2023-01-04T10:01:05;230.50;2252.80
54796;DHT22;40693;43.884;20.340;2023-01-04T10:03:33;230.60;2252.80
54796;DHT22;40693;43.884;20.340;2023-01-04T10:05:59;230.60;2252.80
54796;DHT22;40693;43.884;20.340;2023-01-04T10:08:25;230.70;2252.80
54796;DHT22;40693;43.884;20.340;2023-01-04T10:26:30;230.90;2252.80
54796;DHT22;40693;43.884;20.340;2023-01-04T10:31:46;231.00;2252.80
54796;DHT22;40693;43.884;20.340;2023-01-04T10:34:15;231.00;2252.80
54796;DHT22;40693;43.884;20.340;2023-01-04T10:36:46;231.10;2252.80
54796;DHT22;40693;43.884;20.340;2023-01-04T10:39:13;231.10;2252.80
54796;DHT22;40693;43.884;20.340;2023-01-04T10:41:59;231.10;2252.80
54796;DHT22;40693;43.884;20.340;2023-01-04T10:46:52;231.20;2252.80
54796;DHT22;40693;43.884;20.340;2023-01-04T10:49:27;231.20;2252.80
54796;DHT22;40693;43.884;20.340;2023-01-04T10:52:01;231.20;2252.80
54796;DHT22;40693;43.884;20.340;2023-01-04T10:54:33;231.20;2252.80
54796;DHT22;40693;43.884;20.340;2023-01-04T10:59:29;231.30;2252.80
54796;DHT22;40693;43.884;20.340;2023-01-04T11:04:28;231.30;2252.80
54796;DHT22;40693;43.884;20.340;2023-01-04T11:09:51;256.00;2252.80
54796;DHT22;40693;43.884;20.340;2023-01-04T11:12:18;256.00;2252.80
54796;DHT22;40693;43.884;20.340;2023-01-04T11:14:45;256.10;2252.80
54796;DHT22;40693;43.884;20.340;2023-01-04T11:17:12;256.10;2252.80
54796;DHT22;40693;43.884;20.340;2023-01-04T11:19:38;256.20;2252.80
54796;DHT22;40693;43.884;20.340;2023-01-04T11:22:13;256.20;2252.80
54796;DHT22;40693;43.884;20.340;2023-01-04T11:24:40;256.20;2252.80
54796;DHT22;40693;43.884;20.340;2023-01-04T11:27:10;256.30;2252.80
54796;DHT22;40693;43.884;20.340;2023-01-04T11:29:44;256.30;2252.80
54796;DHT22;40693;43.884;20.340;2023-01-04T11:34:45;256.40;2252.80
54796;DHT22;40693;43.884;20.340;2023-01-04T11:39:49;256.50;2252.80
54796;DHT22;40693;43.884;20.340;2023-01-04T11:42:18;256.60;2252.80
54796;DHT22;40693;43.884;20.340;2023-01-04T11:44:45;256.60;2252.80
54796;DHT22;40693;43.884;20.340;2023-01-04T11:47:21;256.60;2252.80
54796;DHT22;40693;43.884;20.340;2023-01-04T11:49:50;256.70;2252.80
54796;DHT22;40693;43.884;20.340;2023-01-04T11:54:50;256.70;2252.80
54796;DHT22;40693;43.884;20.340;2023-01-04T11:57:19;256.70;2252.80
54796;DHT22;40693;43.884;20.340;2023-01-04T11:59:44;256.70;2252.80
54796;DHT22;40693;43.884;20.340;2023-01-04T12:02:19;256.70;2252.80
54796;DHT22;40693;43.884;20.340;2023-01-04T12:04:44;256.70;2252.80
54796;DHT22;40693;43.884;20.340;2023-01-04T12:09:45;256.70;2252.80
54796;DHT22;40693;43.884;20.340;2023-01-04T12:12:11;256.60;2252.80
54796;DHT22;40693;43.884;20.340;2023-01-04T12:14:37;256.50;2252.80
54796;DHT22;40693;43.884;20.340;2023-01-04T12:17:06;256.50;2252.80
54796;DHT22;40693;43.884;20.340;2023-01-04T12:19:35;256.50;2252.80
54796;DHT22;40693;43.884;20.340;2023-01-04T12:22:02;256.60;2252.80
54796;DHT22;40693;43.884;20.340;2023-01-04T12:24:31;256.60;2252.80
54796;DHT22;40693;43.884;20.340;2023-01-04T12:26:58;256.70;2252.80
54796;DHT22;40693;43.884;20.340;2023-01-04T12:31:50;256.90;2252.80
54796;DHT22;40693;43.884;20.340;2023-01-04T12:52:39;281.90;2278.40
54796;DHT22;40693;43.884;20.340;2023-01-04T12:57:49;282.10;2278.40
54796;DHT22;40693;43.884;20.340;2023-01-04T13:00:15;282.10;2278.40
54796;DHT22;40693;43.884;20.340;2023-01-04T13:05:35;282.20;2278.40
54796;DHT22;40693;43.884;20.340;2023-01-04T13:08:01;282.30;2278.40
54796;DHT22;40693;43.884;20.340;2023-01-04T13:10:34;282.40;2278.40
54796;DHT22;40693;43.884;20.340;2023-01-04T13:18:22;307.20;2304.00
54796;DHT22;40693;43.884;20.340;2023-01-04T13:20:50;307.20;2304.00
54796;DHT22;40693;43.884;20.340;2023-01-04T13:23:15;307.30;2304.00
54796;DHT22;40693;43.884;20.340;2023-01-04T13:25:41;307.40;2304.00
54796;DHT22;40693;43.884;20.340;2023-01-04T13:28:14;307.40;2304.00
54796;DHT22;40693;43.884;20.340;2023-01-04T13:30:40;307.40;2304.00
54796;DHT22;40693;43.884;20.340;2023-01-04T13:33:16;307.50;2304.00
54796;DHT22;40693;43.884;20.340;2023-01-04T13:36:30;307.60;2304.00
54796;DHT22;40693;43.884;20.340;2023-01-04T13:38:31;307.60;2304.00
54796;DHT22;40693;43.884;20.340;2023-01-04T13:40:57;307.60;2304.00
54796;DHT22;40693;43.884;20.340;2023-01-04T13:48:39;307.60;2304.00
54796;DHT22;40693;43.884;20.340;2023-01-04T13:53:41;307.60;2304.00
54796;DHT22;40693;43.884;20.340;2023-01-04T13:56:16;307.60;2304.00
54796;DHT22;40693;43.884;20.340;2023-01-04T13:58:43;307.60;2304.00
54796;DHT22;40693;43.884;20.340;2023-01-04T14:01:14;307.50;2304.00
54796;DHT22;40693;43.884;20.340;2023-01-04T14:03:45;307.40;2304.00
54796;DHT22;40693;43.884;20.340;2023-01-04T14:06:13;307.40;2304.00
54796;DHT22;40693;43.884;20.340;2023-01-04T14:16:42;307.50;2304.00
54796;DHT22;40693;43.884;20.340;2023-01-04T14:22:25;307.50;2304.00
54796;DHT22;40693;43.884;20.340;2023-01-04T14:24:57;307.50;2304.00
54796;DHT22;40693;43.884;20.340;2023-01-04T14:27:36;307.50;2304.00
54796;DHT22;40693;43.884;20.340;2023-01-04T14:32:57;307.40;2304.00
54796;DHT22;40693;43.884;20.340;2023-01-04T14:35:23;307.40;2304.00
54796;DHT22;40693;43.884;20.340;2023-01-04T14:37:50;307.30;2304.00
54796;DHT22;40693;43.884;20.340;2023-01-04T14:40:25;307.30;2304.00
54796;DHT22;40693;43.884;20.340;2023-01-04T14:42:52;307.20;2304.00
54796;DHT22;40693;43.884;20.340;2023-01-04T14:45:18;307.20;2304.00
54796;DHT22;40693;43.884;20.340;2023-01-04T14:47:43;282.50;2278.40
54796;DHT22;40693;43.884;20.340;2023-01-04T14:50:11;282.50;2278.40
54796;DHT22;40693;43.884;20.340;2023-01-04T14:52:37;282.50;2278.40
54796;DHT22;40693;43.884;20.340;2023-01-04T14:55:02;282.40;2278.40
54796;DHT22;40693;43.884;20.340;2023-01-04T14:57:29;282.40;2278.40
54796;DHT22;40693;43.884;20.340;2023-01-04T14:59:55;282.40;2278.40
54796;DHT22;40693;43.884;20.340;2023-01-04T15:02:20;282.40;2278.40
54796;DHT22;40693;43.884;20.340;2023-01-04T15:04:47;282.40;2278.40
54796;DHT22;40693;43.884;20.340;2023-01-04T15:09:57;282.20;2278.40
54796;DHT22;40693;43.884;20.340;2023-01-04T15:12:22;282.20;2278.40
54796;DHT22;40693;43.884;20.340;2023-01-04T15:14:48;282.10;2278.40
54796;DHT22;40693;43.884;20.340;2023-01-04T15:17:13;282.00;2278.40
54796;DHT22;40693;43.884;20.340;2023-01-04T15:19:39;282.00;2278.40
54796;DHT22;40693;43.884;20.340;2023-01-04T15:22:05;281.90;2278.40
54796;DHT22;40693;43.884;20.340;2023-01-04T15:24:30;281.90;2278.40
54796;DHT22;40693;43.884;20.340;2023-01-04T15:26:56;281.80;2278.40
54796;DHT22;40693;43.884;20.340;2023-01-04T15:29:21;281.70;2278.40
54796;DHT22;40693;43.884;20.340;2023-01-04T15:31:47;281.70;2278.40
54796;DHT22;40693;43.884;20.340;2023-01-04T15:34:12;281.60;2278.40
54796;DHT22;40693;43.884;20.340;2023-01-04T15:36:38;256.90;2252.80
54796;DHT22;40693;43.884;20.340;2023-01-04T15:39:05;256.80;2252.80
54796;DHT22;40693;43.884;20.340;2023-01-04T15:41:31;256.70;2252.80
54796;DHT22;40693;43.884;20.340;2023-01-04T15:44:15;256.50;2252.80
54796;DHT22;40693;43.884;20.340;2023-01-04T15:46:41;256.40;2252.80
54796;DHT22;40693;43.884;20.340;2023-01-04T15:49:07;256.40;2252.80
54796;DHT22;40693;43.884;20.340;2023-01-04T15:51:32;256.40;2252.80
54796;DHT22;40693;43.884;20.340;2023-01-04T15:53:58;256.40;2252.80
54796;DHT22;40693;43.884;20.340;2023-01-04T15:56:25;256.30;2252.80
54796;DHT22;40693;43.884;20.340;2023-01-04T15:58:51;256.30;2252.80
54796;DHT22;40693;43.884;20.340;2023-01-04T16:01:17;256.20;2252.80
54796;DHT22;40693;43.884;20.340;2023-01-04T16:03:42;256.20;2252.80
54796;DHT22;40693;43.884;20.340;2023-01-04T16:06:09;256.10;2252.80
54796;DHT22;40693;43.884;20.340;2023-01-04T16:08:35;256.00;2252.80
54796;DHT22;40693;43.884;20.340;2023-01-04T16:11:34;256.00;2252.80
54796;DHT22;40693;43.884;20.340;2023-01-04T16:13:52;231.30;2252.80
54796;DHT22;40693;43.884;20.340;2023-01-04T16:16:19;231.20;2252.80
54796;DHT22;40693;43.884;20.340;2023-01-04T16:18:45;231.10;2252.80
54796;DHT22;40693;43.884;20.340;2023-01-04T16:21:11;231.20;2252.80
54796;DHT22;40693;43.884;20.340;2023-01-04T16:23:37;231.10;2252.80
54796;DHT22;40693;43.884;20.340;2023-01-04T16:26:04;231.20;2252.80
54796;DHT22;40693;43.884;20.340;2023-01-04T16:28:30;231.20;2252.80
54796;DHT22;40693;43.884;20.340;2023-01-04T16:30:56;231.20;2252.80
54796;DHT22;40693;43.884;20.340;2023-01-04T16:33:22;231.20;2252.80
54796;DHT22;40693;43.884;20.340;2023-01-04T16:35:47;231.10;2252.80
54796;DHT22;40693;43.884;20.340;2023-01-04T16:38:13;231.10;2252.80
54796;DHT22;40693;43.884;20.340;2023-01-04T16:40:38;231.10;2252.80
54796;DHT22;40693;43.884;20.340;2023-01-04T16:43:04;231.10;2252.80
54796;DHT22;40693;43.884;20.340;2023-01-04T16:45:31;231.10;2252.80
54796;DHT22;40693;43.884;20.340;2023-01-04T16:47:57;231.10;2252.80
54796;DHT22;40693;43.884;20.340;2023-01-04T16:50:23;231.10;2252.80
54796;DHT22;40693;43.884;20.340;2023-01-04T16:52:49;231.10;2252.80
54796;DHT22;40693;43.884;20.340;2023-01-04T16:55:14;231.10;2252.80
54796;DHT22;40693;43.884;20.340;2023-01-04T16:57:40;231.10;2252.80
54796;DHT22;40693;43.884;20.340;2023-01-04T17:00:06;231.10;2252.80